Time;durP1;ratioP1;P1;durP2;ratioP2;P2;SDS_P1;SDS_P2;PMS_P1;PMS_P2;Temp;Humidity;BMP_temperature;BMP_pressure;BME280_temperature;BME280_humidity;BME280_pressure;Samples;Min_cycle;Max_cycle;Signal;HPM_P1;HPM_P2
2022/08/16 00:00:39;;;;;;;13.48;9.75;;;21.10;99.90;;;;;;5029232;28;20025;-76
2022/08/16 00:03:06;;;;;;;16.02;11.02;;;21.10;99.90;;;;;;5011223;28;20488;-75
2022/08/16 00:05:32;;;;;;;14.88;9.80;;;21.10;99.90;;;;;;5030133;28;20068;-76
2022/08/16 00:07:58;;;;;;;14.30;10.00;;;21.10;99.90;;;;;;5044841;28;20056;-75
2022/08/16 00:10:27;;;;;;;13.75;9.85;;;21.20;99.90;;;;;;5024262;28;20476;-76
2022/08/16 00:12:53;;;;;;;15.55;10.73;;;21.10;99.90;;;;;;5043693;28;20049;-76
2022/08/16 00:15:26;;;;;;;15.13;11.02;;;21.10;99.90;;;;;;5032816;28;20046;-75
2022/08/16 00:17:55;;;;;;;16.40;11.15;;;21.00;99.90;;;;;;5028571;28;20083;-76
2022/08/16 00:20:22;;;;;;;14.98;10.55;;;21.00;99.90;;;;;;5058416;28;20050;-76
2022/08/16 00:22:52;;;;;;;14.40;10.55;;;21.00;99.90;;;;;;5043563;28;20093;-75
2022/08/16 00:25:20;;;;;;;17.40;11.75;;;21.00;99.90;;;;;;5026389;28;20038;-75
2022/08/16 00:27:47;;;;;;;17.90;11.63;;;21.00;99.90;;;;;;5028610;28;20049;-75
2022/08/16 00:30:14;;;;;;;15.15;10.55;;;21.00;99.90;;;;;;5005414;28;20105;-75
2022/08/16 00:32:43;;;;;;;13.82;10.30;;;21.00;99.90;;;;;;4993523;28;20065;-75
2022/08/16 00:35:13;;;;;;;15.52;10.10;;;21.00;99.90;;;;;;5009148;28;20048;-75
2022/08/16 00:37:39;;;;;;;13.68;10.23;;;21.00;99.90;;;;;;5004066;28;20058;-75
2022/08/16 00:40:12;;;;;;;14.60;9.98;;;22.30;99.90;;;;;;4987314;28;20065;-75
2022/08/16 00:42:38;;;;;;;16.27;10.98;;;21.00;99.90;;;;;;4976296;28;20041;-74
2022/08/16 00:45:40;;;;;;;15.38;10.68;;;21.00;99.90;;;;;;5007645;28;20046;-74
2022/08/16 00:48:09;;;;;;;16.33;10.57;;;21.10;99.90;;;;;;5009626;28;20053;-74
2022/08/16 00:50:46;;;;;;;15.40;10.77;;;21.00;99.90;;;;;;5027995;28;20050;-75
2022/08/16 00:53:14;;;;;;;15.18;11.25;;;21.10;99.90;;;;;;4993147;28;20046;-75
2022/08/16 00:55:45;;;;;;;15.45;12.10;;;21.00;99.90;;;;;;5005420;28;20073;-75
2022/08/16 00:58:14;;;;;;;17.35;11.77;;;21.00;99.90;;;;;;5003893;28;20076;-75
2022/08/16 01:00:46;;;;;;;17.30;11.25;;;21.00;99.90;;;;;;4991615;28;20049;-75
2022/08/16 01:03:14;;;;;;;15.18;11.05;;;21.00;99.90;;;;;;5005281;28;20128;-74
2022/08/16 01:05:41;;;;;;;15.07;11.38;;;21.80;99.90;;;;;;5004152;28;20044;-75
2022/08/16 01:08:13;;;;;;;16.17;11.43;;;21.00;99.90;;;;;;4992128;28;20046;-74
2022/08/16 01:10:51;;;;;;;16.33;12.02;;;21.00;99.90;;;;;;5024248;28;20404;-75
2022/08/16 01:13:22;;;;;;;15.68;11.70;;;21.10;99.90;;;;;;5008300;28;20049;-74
2022/08/16 01:16:01;;;;;;;17.83;12.20;;;21.00;99.90;;;;;;5006303;28;20484;-74
2022/08/16 01:18:51;;;;;;;15.48;10.80;;;21.00;99.90;;;;;;4989413;28;20121;-75
2022/08/16 01:21:41;;;;;;;16.63;11.80;;;21.00;99.90;;;;;;5005502;28;20041;-75
2022/08/16 01:24:17;;;;;;;16.98;12.07;;;21.00;99.90;;;;;;4988991;28;20400;-74
2022/08/16 01:26:46;;;;;;;14.65;10.55;;;21.00;99.90;;;;;;5004483;28;20037;-75
2022/08/16 01:29:22;;;;;;;17.27;12.10;;;20.90;99.90;;;;;;5002017;28;20498;-75
2022/08/16 01:31:48;;;;;;;15.05;11.27;;;21.00;99.90;;;;;;5018273;28;20439;-75
2022/08/16 01:34:16;;;;;;;16.20;11.48;;;20.90;99.90;;;;;;5006371;28;20048;-75
2022/08/16 01:36:42;;;;;;;17.90;11.68;;;20.90;99.90;;;;;;5002445;28;20160;-75
2022/08/16 01:39:14;;;;;;;14.48;11.25;;;20.90;99.90;;;;;;5002983;28;20122;-76
2022/08/16 01:41:41;;;;;;;15.10;10.82;;;20.90;99.90;;;;;;5004609;28;20571;-74
2022/08/16 01:44:09;;;;;;;14.73;11.02;;;20.80;99.90;;;;;;5008319;28;20034;-75
2022/08/16 01:46:41;;;;;;;15.45;10.25;;;20.70;99.90;;;;;;5038722;28;20037;-75
2022/08/16 01:49:32;;;;;;;14.38;10.65;;;20.80;99.90;;;;;;4990002;28;20046;-75
2022/08/16 01:52:10;;;;;;;16.10;11.27;;;20.80;99.90;;;;;;5003298;28;20061;-74
2022/08/16 01:54:38;;;;;;;15.05;11.82;;;20.70;99.90;;;;;;5024455;28;20089;-75
2022/08/16 01:57:10;;;;;;;17.60;12.45;;;20.70;99.90;;;;;;5005701;28;20176;-75
2022/08/16 01:59:40;;;;;;;16.85;12.13;;;20.40;99.90;;;;;;4991142;28;20048;-75
2022/08/16 02:02:06;;;;;;;19.70;13.43;;;20.60;99.90;;;;;;4987121;28;20038;-74
2022/08/16 02:04:34;;;;;;;17.42;13.43;;;20.60;99.90;;;;;;5003057;28;20404;-75
2022/08/16 02:07:04;;;;;;;16.20;12.82;;;20.60;99.90;;;;;;5006396;28;20042;-75
2022/08/16 02:09:30;;;;;;;18.83;13.02;;;20.60;99.90;;;;;;4990635;28;20034;-73
2022/08/16 02:12:00;;;;;;;16.52;12.80;;;20.60;99.90;;;;;;5008025;28;20045;-75
2022/08/16 02:14:29;;;;;;;16.80;13.15;;;20.60;99.90;;;;;;5007408;28;20054;-74
2022/08/16 02:16:57;;;;;;;18.45;14.07;;;20.60;99.90;;;;;;5005275;28;20076;-74
2022/08/16 02:19:26;;;;;;;17.85;13.27;;;20.60;99.90;;;;;;5007660;28;20060;-75
2022/08/16 02:21:55;;;;;;;18.20;13.45;;;20.50;99.90;;;;;;5005196;28;20030;-74
2022/08/16 02:24:22;;;;;;;19.25;13.75;;;20.60;99.90;;;;;;4998393;28;20038;-75
2022/08/16 02:26:51;;;;;;;19.50;14.05;;;20.50;99.90;;;;;;5007370;28;20060;-75
2022/08/16 02:29:20;;;;;;;18.23;13.93;;;20.50;99.90;;;;;;5007703;28;20408;-75
2022/08/16 02:31:48;;;;;;;18.75;14.27;;;20.50;99.90;;;;;;5006911;28;20046;-75
2022/08/16 02:34:18;;;;;;;19.33;15.07;;;20.50;99.90;;;;;;5006127;28;20049;-75
2022/08/16 02:36:45;;;;;;;21.58;15.15;;;20.40;99.90;;;;;;4988416;28;20377;-74
2022/08/16 02:39:13;;;;;;;18.23;14.75;;;20.70;99.90;;;;;;5005180;28;20285;-74
2022/08/16 02:41:43;;;;;;;21.10;14.55;;;20.40;99.90;;;;;;5001891;28;20042;-74
2022/08/16 02:44:13;;;;;;;18.90;15.05;;;20.40;99.90;;;;;;5008368;28;20393;-75
2022/08/16 02:46:41;;;;;;;19.13;14.77;;;20.40;99.90;;;;;;5005799;28;20046;-74
2022/08/16 02:49:07;;;;;;;19.70;15.30;;;20.40;99.90;;;;;;5005531;28;20100;-75
2022/08/16 02:51:37;;;;;;;19.25;15.10;;;20.30;99.90;;;;;;4995766;28;20080;-75
2022/08/16 02:54:05;;;;;;;19.02;14.88;;;21.20;99.90;;;;;;4991123;28;20504;-74
2022/08/16 02:56:31;;;;;;;19.73;15.43;;;20.30;99.90;;;;;;4986219;28;20489;-74
2022/08/16 02:58:57;;;;;;;20.35;15.50;;;20.30;99.90;;;;;;4987655;28;20045;-75
2022/08/16 03:01:27;;;;;;;22.08;15.73;;;20.30;99.90;;;;;;5003311;28;20533;-74
2022/08/16 03:03:54;;;;;;;19.48;14.55;;;20.30;99.90;;;;;;5004577;28;20412;-74
2022/08/16 03:06:21;;;;;;;21.92;15.32;;;20.30;99.90;;;;;;5004394;28;20046;-74
2022/08/16 03:08:52;;;;;;;21.15;14.88;;;20.30;99.90;;;;;;5005516;28;20104;-75
2022/08/16 03:11:24;;;;;;;19.50;14.85;;;20.80;99.90;;;;;;4987469;28;20125;-75
2022/08/16 03:13:59;;;;;;;21.70;15.35;;;21.10;99.90;;;;;;4983034;28;20053;-74
2022/08/16 03:16:25;;;;;;;24.90;15.13;;;20.30;99.90;;;;;;5002570;28;20496;-75
2022/08/16 03:18:52;;;;;;;18.08;14.35;;;20.30;99.90;;;;;;5021278;28;20061;-73
2022/08/16 03:21:18;;;;;;;22.55;15.43;;;20.30;99.90;;;;;;5002840;28;20063;-74
2022/08/16 03:23:43;;;;;;;19.77;14.20;;;20.30;99.90;;;;;;5036339;28;20046;-73
2022/08/16 03:26:10;;;;;;;18.80;14.00;;;20.30;99.90;;;;;;4972181;28;20407;-74
2022/08/16 03:28:35;;;;;;;17.88;13.75;;;20.30;99.90;;;;;;5005821;28;20097;-74
2022/08/16 03:31:01;;;;;;;18.15;14.48;;;20.30;99.90;;;;;;5006219;28;20041;-74
2022/08/16 03:33:27;;;;;;;19.80;14.75;;;20.20;99.90;;;;;;5004125;28;20103;-74
2022/08/16 03:36:00;;;;;;;19.08;13.98;;;20.20;99.90;;;;;;4985662;28;20121;-74
2022/08/16 03:38:28;;;;;;;18.10;13.65;;;20.20;99.90;;;;;;5010847;28;20058;-75
2022/08/16 03:40:55;;;;;;;17.70;13.77;;;20.20;99.90;;;;;;5005609;28;20082;-74
2022/08/16 03:43:22;;;;;;;18.30;13.30;;;20.10;99.90;;;;;;5006836;28;20046;-74
2022/08/16 03:45:50;;;;;;;19.70;14.55;;;20.10;99.90;;;;;;5022653;28;20202;-74
2022/08/16 03:48:16;;;;;;;19.10;14.32;;;20.10;99.90;;;;;;5007245;28;20435;-73
2022/08/16 03:50:41;;;;;;;19.02;15.13;;;20.10;99.90;;;;;;4959419;28;20095;-74
2022/08/16 03:53:07;;;;;;;20.13;14.32;;;20.00;99.90;;;;;;4991384;28;20034;-74
2022/08/16 03:55:36;;;;;;;19.98;15.38;;;20.00;99.90;;;;;;4977605;28;20077;-74
2022/08/16 03:58:02;;;;;;;18.83;14.88;;;20.00;99.90;;;;;;4991420;28;20084;-74
2022/08/16 04:00:29;;;;;;;18.65;14.80;;;20.00;99.90;;;;;;5008945;28;20073;-74
2022/08/16 04:02:57;;;;;;;20.80;14.32;;;19.90;99.90;;;;;;5003703;28;20163;-74
2022/08/16 04:05:27;;;;;;;20.85;15.63;;;19.80;99.90;;;;;;5006666;28;20064;-74
2022/08/16 04:07:52;;;;;;;20.42;15.93;;;19.80;99.90;;;;;;4993707;28;20100;-75
2022/08/16 04:10:18;;;;;;;19.25;14.60;;;19.90;99.90;;;;;;5010720;28;20042;-74
2022/08/16 04:12:45;;;;;;;19.83;14.70;;;19.80;99.90;;;;;;5006416;28;20068;-74
2022/08/16 04:15:13;;;;;;;18.58;14.38;;;19.80;99.90;;;;;;5007575;28;20515;-75
2022/08/16 04:17:39;;;;;;;19.73;14.45;;;19.80;99.90;;;;;;5005646;28;20560;-73
2022/08/16 04:20:09;;;;;;;17.13;14.27;;;19.70;99.90;;;;;;5009025;28;20034;-74
2022/08/16 04:22:36;;;;;;;19.35;14.43;;;19.70;99.90;;;;;;5005311;28;20034;-74
2022/08/16 04:25:04;;;;;;;21.40;15.55;;;19.70;99.90;;;;;;5007699;28;20060;-74
2022/08/16 04:27:30;;;;;;;21.48;15.07;;;19.10;99.90;;;;;;5008579;28;20049;-74
2022/08/16 04:29:56;;;;;;;19.67;14.93;;;19.60;99.90;;;;;;5006401;28;20046;-74
2022/08/16 04:32:22;;;;;;;20.15;14.32;;;19.60;99.90;;;;;;5008736;28;20484;-75
2022/08/16 04:34:51;;;;;;;19.25;14.73;;;19.00;99.90;;;;;;5007942;28;20069;-74
2022/08/16 04:37:19;;;;;;;19.45;14.35;;;19.60;99.90;;;;;;5007702;28;20108;-75
2022/08/16 04:39:45;;;;;;;22.45;15.18;;;19.60;99.90;;;;;;5016633;28;20512;-75
2022/08/16 04:42:11;;;;;;;20.02;14.52;;;19.60;99.90;;;;;;5005091;28;20035;-76
2022/08/16 04:44:39;;;;;;;17.80;14.02;;;19.60;99.90;;;;;;5006452;28;20042;-74
2022/08/16 04:47:14;;;;;;;19.55;14.20;;;19.50;99.90;;;;;;4991167;28;20116;-74
2022/08/16 04:49:40;;;;;;;19.27;14.85;;;19.60;99.90;;;;;;5007178;28;20072;-74
2022/08/16 04:52:06;;;;;;;18.77;14.90;;;19.50;99.90;;;;;;5007769;28;20033;-74
2022/08/16 04:54:34;;;;;;;19.00;14.45;;;19.60;99.90;;;;;;4988362;28;20034;-75
2022/08/16 04:57:00;;;;;;;18.20;13.95;;;19.60;99.90;;;;;;4999219;28;20069;-74
2022/08/16 04:59:26;;;;;;;21.70;13.43;;;19.60;99.90;;;;;;4997355;28;20528;-74
2022/08/16 05:01:55;;;;;;;21.40;14.05;;;19.60;99.90;;;;;;4967456;28;20124;-74
2022/08/16 05:04:22;;;;;;;18.50;13.43;;;19.60;99.90;;;;;;4999258;28;20046;-74
2022/08/16 05:06:49;;;;;;;18.27;14.50;;;19.60;99.90;;;;;;5004781;28;20241;-74
2022/08/16 05:09:15;;;;;;;18.95;13.60;;;19.60;99.90;;;;;;5006598;28;20041;-74
2022/08/16 05:11:40;;;;;;;20.38;14.52;;;19.60;99.90;;;;;;5006127;28;20034;-75
2022/08/16 05:14:15;;;;;;;17.85;13.73;;;19.60;99.90;;;;;;5003181;28;20682;-74
2022/08/16 05:16:42;;;;;;;17.15;14.20;;;19.70;99.90;;;;;;5007463;28;20140;-74
2022/08/16 05:19:08;;;;;;;22.02;14.68;;;19.70;99.90;;;;;;5005723;28;20124;-74
2022/08/16 05:21:36;;;;;;;18.80;14.10;;;19.70;99.90;;;;;;5006855;28;20041;-74
2022/08/16 05:24:02;;;;;;;20.27;14.43;;;19.70;99.90;;;;;;4975280;28;20092;-75
2022/08/16 05:26:32;;;;;;;21.25;13.82;;;19.80;99.90;;;;;;4971417;28;20272;-75
2022/08/16 05:28:59;;;;;;;18.65;14.20;;;19.80;99.90;;;;;;5024664;28;20455;-75
2022/08/16 05:31:27;;;;;;;17.77;14.30;;;19.00;99.90;;;;;;5004374;28;20403;-74
2022/08/16 05:34:03;;;;;;;23.13;15.68;;;19.20;99.90;;;;;;5019276;28;20042;-75
2022/08/16 05:36:28;;;;;;;18.10;14.82;;;19.80;99.90;;;;;;5004186;28;20088;-74
2022/08/16 05:38:54;;;;;;;20.83;14.88;;;19.90;99.90;;;;;;4986672;28;20532;-74
2022/08/16 05:41:20;;;;;;;19.65;14.55;;;19.90;99.90;;;;;;5008969;28;20038;-74
2022/08/16 05:43:46;;;;;;;19.67;15.05;;;20.00;99.90;;;;;;5000446;28;20042;-75
2022/08/16 05:46:16;;;;;;;18.20;15.38;;;20.00;99.90;;;;;;5008383;28;20050;-75
2022/08/16 05:48:45;;;;;;;19.35;15.10;;;20.00;99.90;;;;;;5042559;28;20054;-75
2022/08/16 05:51:14;;;;;;;19.23;14.57;;;20.10;99.90;;;;;;5008586;28;20219;-75
2022/08/16 05:53:39;;;;;;;18.60;13.98;;;20.10;99.90;;;;;;4976596;28;20436;-76
2022/08/16 05:56:06;;;;;;;18.13;13.95;;;20.10;99.90;;;;;;5008851;28;20080;-74
2022/08/16 05:58:31;;;;;;;19.00;14.07;;;20.20;99.90;;;;;;5008909;28;20084;-75
2022/08/16 06:00:57;;;;;;;19.48;14.50;;;20.20;99.90;;;;;;5009144;28;20474;-74
2022/08/16 06:03:23;;;;;;;24.50;14.93;;;20.30;99.90;;;;;;5005275;28;20069;-76
2022/08/16 06:05:49;;;;;;;19.25;14.60;;;20.30;99.90;;;;;;5002781;28;20056;-76
2022/08/16 06:08:17;;;;;;;20.70;13.90;;;20.40;99.90;;;;;;5008856;28;20377;-76
2022/08/16 06:10:46;;;;;;;17.25;13.02;;;20.50;99.90;;;;;;4998614;28;20129;-75
2022/08/16 06:13:11;;;;;;;19.42;14.15;;;20.50;99.90;;;;;;4995036;28;20132;-75
2022/08/16 06:15:37;;;;;;;18.83;13.55;;;20.60;99.90;;;;;;5007265;28;20451;-75
2022/08/16 06:18:03;;;;;;;20.20;14.40;;;20.70;99.90;;;;;;5005095;28;20053;-75
2022/08/16 06:20:29;;;;;;;19.15;13.95;;;20.70;99.90;;;;;;5016933;28;20511;-75
2022/08/16 06:22:56;;;;;;;18.83;13.38;;;20.70;99.90;;;;;;4985813;28;20038;-76
2022/08/16 06:25:27;;;;;;;18.00;12.93;;;19.90;99.90;;;;;;4972041;28;20062;-75
2022/08/16 06:27:53;;;;;;;17.02;13.50;;;20.90;99.90;;;;;;5008572;28;20132;-75
2022/08/16 06:30:20;;;;;;;18.27;12.45;;;21.00;99.90;;;;;;5025082;28;20045;-75
2022/08/16 06:32:46;;;;;;;15.93;12.25;;;21.10;99.90;;;;;;5035438;28;20038;-75
2022/08/16 06:35:14;;;;;;;16.27;12.57;;;21.20;99.90;;;;;;5022400;28;20558;-76
2022/08/16 06:37:40;;;;;;;19.05;12.32;;;21.20;99.90;;;;;;5001261;28;20124;-75
2022/08/16 06:40:07;;;;;;;16.90;11.70;;;21.30;99.90;;;;;;4987182;28;20041;-75
2022/08/16 06:42:33;;;;;;;17.92;12.68;;;21.40;99.90;;;;;;5007196;28;20034;-75
2022/08/16 06:44:59;;;;;;;16.00;11.32;;;21.50;99.90;;;;;;5025343;28;20042;-75
2022/08/16 06:47:25;;;;;;;18.63;12.10;;;21.50;99.90;;;;;;5005803;28;20050;-75
2022/08/16 06:49:50;;;;;;;19.33;11.05;;;21.60;99.90;;;;;;4985767;28;20132;-75
2022/08/16 06:52:17;;;;;;;17.73;11.98;;;21.70;99.90;;;;;;5000764;28;20081;-75
2022/08/16 06:54:43;;;;;;;15.98;11.77;;;21.70;99.90;;;;;;5001417;28;20104;-75
2022/08/16 06:57:12;;;;;;;16.55;11.68;;;21.80;99.90;;;;;;4991070;28;20046;-75
2022/08/16 06:59:38;;;;;;;17.15;11.52;;;21.80;99.90;;;;;;5003551;28;20048;-75
2022/08/16 07:02:04;;;;;;;17.30;11.45;;;21.90;99.90;;;;;;5011702;28;20460;-74
2022/08/16 07:04:33;;;;;;;16.73;11.45;;;22.00;99.90;;;;;;5007745;28;20042;-74
2022/08/16 07:07:00;;;;;;;17.38;11.85;;;22.00;99.90;;;;;;5041261;28;20045;-75
2022/08/16 07:09:26;;;;;;;17.38;11.55;;;22.10;99.90;;;;;;5007068;28;20045;-75
2022/08/16 07:11:51;;;;;;;15.75;11.25;;;22.10;99.90;;;;;;5006806;28;20083;-75
2022/08/16 07:14:17;;;;;;;18.60;12.75;;;22.20;99.90;;;;;;4992113;28;20049;-73
2022/08/16 07:16:43;;;;;;;17.08;11.80;;;22.30;99.90;;;;;;5008302;28;20133;-74
2022/08/16 07:19:09;;;;;;;18.73;11.82;;;22.40;99.90;;;;;;5007092;28;20068;-75
2022/08/16 07:21:35;;;;;;;16.85;11.48;;;22.40;99.90;;;;;;5011226;28;20120;-74
2022/08/16 07:24:03;;;;;;;16.02;11.15;;;22.50;99.90;;;;;;5011451;28;20045;-75
2022/08/16 07:26:29;;;;;;;15.40;11.35;;;22.50;99.90;;;;;;4995874;28;20400;-75
2022/08/16 07:28:55;;;;;;;16.38;11.25;;;22.60;99.90;;;;;;5044892;28;20033;-75
2022/08/16 07:31:21;;;;;;;17.23;11.65;;;22.70;99.90;;;;;;5011194;28;20046;-75
2022/08/16 07:33:47;;;;;;;15.98;11.10;;;22.70;99.90;;;;;;5012255;28;20053;-74
2022/08/16 07:36:13;;;;;;;18.38;11.45;;;22.80;99.90;;;;;;5011672;28;20531;-75
2022/08/16 07:38:41;;;;;;;16.90;10.50;;;22.90;99.90;;;;;;5011579;28;20133;-75
2022/08/16 07:41:07;;;;;;;15.63;10.98;;;23.00;99.90;;;;;;5010415;28;20254;-75
2022/08/16 07:43:33;;;;;;;14.48;9.90;;;23.00;99.90;;;;;;4994512;28;20041;-74
2022/08/16 07:46:00;;;;;;;15.10;9.70;;;23.10;99.90;;;;;;5012687;28;20038;-75
2022/08/16 07:48:26;;;;;;;16.38;10.15;;;23.20;99.90;;;;;;4998926;28;20046;-77
2022/08/16 07:50:52;;;;;;;13.73;9.38;;;23.30;99.90;;;;;;4992493;28;20077;-75
2022/08/16 07:53:18;;;;;;;15.18;10.00;;;23.40;99.90;;;;;;5011826;28;20407;-75
2022/08/16 07:55:44;;;;;;;15.00;10.20;;;23.50;99.90;;;;;;5011322;28;20192;-75
2022/08/16 07:58:12;;;;;;;17.17;9.73;;;23.50;99.90;;;;;;5028012;28;20132;-74
2022/08/16 08:00:38;;;;;;;15.00;9.38;;;23.50;99.90;;;;;;5011661;28;20416;-74
2022/08/16 08:03:04;;;;;;;13.85;9.23;;;23.60;99.90;;;;;;5000977;28;20038;-74
2022/08/16 08:05:30;;;;;;;13.43;9.23;;;23.70;99.90;;;;;;5008634;28;20192;-74
2022/08/16 08:07:56;;;;;;;16.40;9.75;;;23.70;99.90;;;;;;5044458;28;20117;-74
2022/08/16 08:10:23;;;;;;;12.77;8.48;;;23.70;99.90;;;;;;5019244;28;20047;-74
2022/08/16 08:12:52;;;;;;;12.13;8.73;;;23.80;99.90;;;;;;5010273;28;20642;-75
2022/08/16 08:15:19;;;;;;;13.65;8.40;;;23.90;99.90;;;;;;4992275;28;20045;-75
2022/08/16 08:17:45;;;;;;;12.60;8.35;;;23.90;99.90;;;;;;5011403;28;20052;-75
2022/08/16 08:20:13;;;;;;;13.43;8.60;;;24.00;99.90;;;;;;4994992;28;20053;-74
2022/08/16 08:22:39;;;;;;;14.73;8.63;;;24.10;99.90;;;;;;5009915;28;20116;-74
2022/08/16 08:25:06;;;;;;;14.80;8.30;;;24.10;99.90;;;;;;4992086;28;20045;-74
2022/08/16 08:27:32;;;;;;;13.60;8.27;;;24.10;99.90;;;;;;5010385;28;20042;-74
2022/08/16 08:29:58;;;;;;;13.48;7.95;;;24.20;99.90;;;;;;4993920;28;20128;-75
2022/08/16 08:32:27;;;;;;;11.93;7.07;;;24.30;99.90;;;;;;5010765;28;20121;-75
2022/08/16 08:34:57;;;;;;;11.43;7.22;;;24.30;99.90;;;;;;5011233;28;20038;-75
2022/08/16 08:37:26;;;;;;;13.43;7.10;;;24.40;99.90;;;;;;5010709;28;20061;-75
2022/08/16 08:39:54;;;;;;;11.38;7.22;;;24.50;99.90;;;;;;4977252;28;20049;-75
2022/08/16 08:42:20;;;;;;;12.88;8.30;;;24.50;99.90;;;;;;5010145;28;20524;-74
2022/08/16 08:44:45;;;;;;;11.70;6.78;;;24.60;99.90;;;;;;4990328;28;20122;-74
2022/08/16 08:47:21;;;;;;;13.00;6.78;;;24.70;99.90;;;;;;4983641;28;20103;-74
2022/08/16 08:49:47;;;;;;;11.80;7.18;;;24.80;99.90;;;;;;5011045;28;20055;-74
2022/08/16 08:52:13;;;;;;;12.48;7.03;;;24.80;99.90;;;;;;5009505;28;20038;-74
2022/08/16 08:54:40;;;;;;;11.25;6.70;;;25.30;99.90;;;;;;5007110;28;20034;-75
2022/08/16 08:57:06;;;;;;;13.07;6.32;;;25.90;99.90;;;;;;5010105;28;20436;-74
2022/08/16 08:59:33;;;;;;;13.07;6.63;;;25.00;99.90;;;;;;5012116;28;20064;-75
2022/08/16 09:02:02;;;;;;;10.30;5.60;;;25.10;99.90;;;;;;5011303;28;20046;-75
2022/08/16 09:04:34;;;;;;;11.38;5.80;;;25.10;99.90;;;;;;5040815;28;20042;-75
2022/08/16 09:06:59;;;;;;;10.25;6.00;;;25.20;99.90;;;;;;5011012;28;20492;-74
2022/08/16 09:09:25;;;;;;;9.98;5.78;;;25.20;99.90;;;;;;4996188;28;20127;-75
2022/08/16 09:11:51;;;;;;;11.80;6.15;;;25.20;99.90;;;;;;5011481;28;20120;-75
2022/08/16 09:14:17;;;;;;;12.73;5.80;;;25.20;99.90;;;;;;5009281;28;20049;-74
2022/08/16 09:16:46;;;;;;;11.05;5.72;;;25.30;99.90;;;;;;5008975;28;20046;-75
2022/08/16 09:19:14;;;;;;;13.80;5.90;;;25.30;99.90;;;;;;5026536;28;20884;-75
2022/08/16 09:21:40;;;;;;;11.82;6.10;;;25.30;99.90;;;;;;4993675;28;20121;-75
2022/08/16 09:24:06;;;;;;;9.75;5.30;;;25.40;99.90;;;;;;4992651;28;20144;-74
2022/08/16 09:26:32;;;;;;;12.82;5.28;;;25.50;99.90;;;;;;4992770;28;20124;-75
2022/08/16 09:28:58;;;;;;;12.70;5.43;;;25.60;99.90;;;;;;5009035;28;20564;-74
2022/08/16 09:31:24;;;;;;;10.70;5.15;;;25.60;99.90;;;;;;4992847;28;20073;-75
2022/08/16 09:33:51;;;;;;;10.95;5.03;;;;;;;;;;4993519;28;20108;-75
2022/08/16 09:36:18;;;;;;;10.45;5.43;;;26.40;99.90;;;;;;5006646;28;20455;-75
2022/08/16 09:38:44;;;;;;;9.52;5.25;;;25.70;99.90;;;;;;5009968;28;20137;-74
2022/08/16 09:41:13;;;;;;;9.43;5.10;;;25.80;99.90;;;;;;5010894;28;20524;-75
2022/08/16 09:43:38;;;;;;;10.50;5.57;;;25.90;99.90;;;;;;5009218;28;20042;-75
2022/08/16 09:46:08;;;;;;;10.32;5.43;;;26.00;99.90;;;;;;4992178;28;20485;-75
2022/08/16 09:48:38;;;;;;;10.35;5.28;;;26.10;99.90;;;;;;4991287;28;20064;-74
2022/08/16 09:51:04;;;;;;;8.73;4.40;;;26.10;99.90;;;;;;5009444;28;20065;-75
2022/08/16 09:53:31;;;;;;;8.73;4.53;;;26.10;99.90;;;;;;5010357;28;20030;-75
2022/08/16 09:55:57;;;;;;;10.98;4.70;;;26.20;99.90;;;;;;4976014;28;20404;-75
2022/08/16 09:58:37;;;;;;;9.45;4.57;;;26.20;99.90;;;;;;5008243;28;20133;-75
2022/08/16 10:01:03;;;;;;;10.80;4.47;;;26.30;99.90;;;;;;4976200;28;20069;-75
2022/08/16 10:03:28;;;;;;;9.65;5.20;;;26.40;99.90;;;;;;5010285;28;20485;-75
2022/08/16 10:05:57;;;;;;;10.73;5.15;;;26.40;99.90;;;;;;4979740;28;20116;-74
2022/08/16 10:08:22;;;;;;;10.73;5.20;;;26.50;99.90;;;;;;5007162;28;20128;-74
2022/08/16 10:13:33;;;;;;;9.10;5.35;;;26.60;99.90;;;;;;5009272;28;20049;-74
2022/08/16 10:15:59;;;;;;;10.25;4.93;;;26.70;99.90;;;;;;4992915;28;20077;-75
2022/08/16 10:18:29;;;;;;;8.55;4.40;;;26.80;99.90;;;;;;5005262;28;20057;-75
2022/08/16 10:20:59;;;;;;;10.80;4.88;;;26.90;99.90;;;;;;5008765;28;20570;-75
2022/08/16 10:23:25;;;;;;;9.90;4.88;;;27.00;99.90;;;;;;5009985;28;20299;-75
2022/08/16 10:25:52;;;;;;;9.90;4.95;;;;;;;;;;5010500;28;20077;-75
2022/08/16 10:28:17;;;;;;;12.13;5.55;;;27.00;99.90;;;;;;5009058;28;20472;-74
2022/08/16 10:30:43;;;;;;;10.10;5.22;;;27.10;99.90;;;;;;5009204;28;20077;-76
2022/08/16 10:33:13;;;;;;;11.13;5.53;;;27.20;99.90;;;;;;5001055;28;20129;-75
2022/08/16 10:35:40;;;;;;;14.75;5.45;;;27.20;99.90;;;;;;4988975;28;20088;-75
2022/08/16 10:38:06;;;;;;;9.70;4.07;;;27.30;99.90;;;;;;4973752;28;20047;-76
2022/08/16 10:40:33;;;;;;;11.52;5.05;;;27.30;99.90;;;;;;5007998;28;20455;-75
2022/08/16 10:42:58;;;;;;;8.73;4.72;;;27.40;99.90;;;;;;4992304;28;20038;-74
2022/08/16 10:45:24;;;;;;;9.60;5.07;;;27.40;99.90;;;;;;5011890;28;20045;-75
2022/08/16 10:47:50;;;;;;;9.38;5.10;;;27.40;99.90;;;;;;5005269;28;20296;-74
2022/08/16 10:50:16;;;;;;;10.90;4.80;;;27.50;99.90;;;;;;5003023;28;20046;-75
2022/08/16 10:52:42;;;;;;;10.55;5.30;;;27.50;99.90;;;;;;5007696;28;20512;-75
2022/08/16 10:55:10;;;;;;;10.38;5.30;;;27.50;99.90;;;;;;4975669;28;20042;-74
2022/08/16 10:57:36;;;;;;;10.80;5.28;;;27.50;99.90;;;;;;5010447;28;20084;-74
2022/08/16 11:00:11;;;;;;;13.38;5.50;;;27.60;99.90;;;;;;5011113;28;20042;-75
2022/08/16 11:02:37;;;;;;;11.45;5.18;;;27.70;99.90;;;;;;4994523;28;20125;-74
2022/08/16 11:05:05;;;;;;;12.10;4.68;;;27.70;99.90;;;;;;4979970;28;20046;-75
2022/08/16 11:07:31;;;;;;;9.25;4.72;;;27.70;99.90;;;;;;4995769;28;20053;-75
2022/08/16 11:10:00;;;;;;;9.05;4.78;;;27.80;99.90;;;;;;4998450;28;20034;-75
2022/08/16 11:12:27;;;;;;;10.43;5.45;;;27.90;99.90;;;;;;5007125;28;20432;-75
2022/08/16 11:14:53;;;;;;;9.30;4.90;;;27.90;99.90;;;;;;5040203;28;20034;-75
2022/08/16 11:17:18;;;;;;;10.98;4.97;;;27.90;99.90;;;;;;5013043;28;20416;-75
2022/08/16 11:19:44;;;;;;;11.23;5.35;;;27.90;99.90;;;;;;5012578;28;20573;-74
2022/08/16 11:22:10;;;;;;;11.73;5.05;;;27.90;99.90;;;;;;4990474;28;20042;-75
2022/08/16 11:24:39;;;;;;;11.55;5.20;;;27.90;99.90;;;;;;4994444;28;20510;-74
2022/08/16 11:27:07;;;;;;;12.18;5.35;;;28.30;99.90;;;;;;5012982;28;20129;-74
2022/08/16 11:29:34;;;;;;;11.07;5.95;;;28.10;99.90;;;;;;5013016;28;20053;-75
2022/08/16 11:32:01;;;;;;;10.13;4.65;;;28.10;99.90;;;;;;5011108;28;20037;-76
2022/08/16 11:34:27;;;;;;;9.48;5.20;;;28.20;99.90;;;;;;5018820;28;20050;-74
2022/08/16 11:36:53;;;;;;;14.15;5.68;;;28.20;99.90;;;;;;4976045;28;20118;-75
2022/08/16 11:39:18;;;;;;;12.82;5.35;;;28.20;99.90;;;;;;4992301;28;20141;-75
2022/08/16 11:41:45;;;;;;;11.27;5.50;;;28.20;99.90;;;;;;4993364;28;20513;-75
2022/08/16 11:44:10;;;;;;;10.63;5.60;;;28.30;99.90;;;;;;4992489;28;20420;-75
2022/08/16 11:46:37;;;;;;;10.88;5.22;;;28.30;99.90;;;;;;5013113;28;20117;-76
2022/08/16 11:49:04;;;;;;;10.15;5.72;;;28.30;99.90;;;;;;5011479;28;20048;-75
2022/08/16 11:51:30;;;;;;;11.05;5.70;;;28.40;99.90;;;;;;5012845;28;20438;-75
2022/08/16 11:53:57;;;;;;;9.82;5.80;;;28.40;99.90;;;;;;4993422;28;20046;-74
2022/08/16 11:56:23;;;;;;;10.82;6.45;;;28.80;99.90;;;;;;5012755;28;20041;-75
2022/08/16 11:58:49;;;;;;;11.50;5.53;;;28.50;99.90;;;;;;4994681;28;20042;-75
2022/08/16 12:01:15;;;;;;;16.15;6.10;;;28.60;99.90;;;;;;5011525;28;20038;-75
2022/08/16 12:03:42;;;;;;;12.40;5.68;;;28.50;99.90;;;;;;5011268;28;20041;-76
2022/08/16 12:06:15;;;;;;;10.65;5.50;;;28.60;99.90;;;;;;5009667;28;20046;-75
2022/08/16 12:08:44;;;;;;;9.73;5.35;;;28.50;99.90;;;;;;4994713;28;20050;-75
2022/08/16 12:11:11;;;;;;;9.32;5.68;;;28.70;99.90;;;;;;4998229;28;20042;-75
2022/08/16 12:13:37;;;;;;;10.65;5.78;;;28.70;99.90;;;;;;5010985;28;20076;-75
2022/08/16 12:16:07;;;;;;;10.02;5.57;;;28.90;99.90;;;;;;4992984;28;20038;-75
2022/08/16 12:18:34;;;;;;;9.82;5.20;;;29.00;99.90;;;;;;4994454;28;20428;-74
2022/08/16 12:20:59;;;;;;;12.48;5.28;;;29.00;99.90;;;;;;5002178;28;20495;-74
2022/08/16 12:23:26;;;;;;;11.82;6.10;;;28.80;99.90;;;;;;5007700;28;20121;-75
2022/08/16 12:25:52;;;;;;;9.55;5.43;;;28.60;99.90;;;;;;4998652;28;20084;-74
2022/08/16 12:28:18;;;;;;;11.05;5.57;;;28.50;99.90;;;;;;5010908;28;20408;-75
2022/08/16 12:30:45;;;;;;;10.55;5.50;;;28.70;99.90;;;;;;5010856;28;20041;-75
2022/08/16 12:33:15;;;;;;;10.13;5.00;;;28.80;99.90;;;;;;5012130;28;20408;-76
2022/08/16 12:35:42;;;;;;;12.82;5.47;;;29.00;99.90;;;;;;5009863;28;20515;-75
2022/08/16 12:38:09;;;;;;;11.15;4.80;;;29.10;99.90;;;;;;5007798;28;20116;-75